Mountain, North Dakota
Current Conditions -  °F | °C
As of 10:35 PM on Saturday 20 Dec 2014 (Local Time) from K2C8 Reporting Station
Haze Haze  
Wind Chill: 17°   Ceiling: 500
Heat Index: 28°   Visibility: 3mi
Dew Point: 28°   Wind: 14mph
Humidity: 100%   Direction: 190°S
Pressure: 29.82"   Gusts: 17mph
Location:  48.69°N, 97.87°W
Report Text: K2C8 210435Z AUTO 19012G15KT 3SM BR OVC005 M02/M02 A2982 RMK AO2
Loading
Personal Weather Stations






























Interactive Weather Map New forecast layout! Learn more

10-Day Weather Forecast

Advertisements
Track Severe Weather on mobile